createdAt,value
2022-11-24T00:01:26.957Z,29.70
2022-11-24T00:03:55.685Z,29.83
2022-11-24T00:06:22.605Z,27.60
2022-11-24T00:08:49.588Z,30.02
2022-11-24T00:11:18.525Z,28.75
2022-11-24T00:13:45.690Z,30.33
2022-11-24T00:16:14.052Z,28.42
2022-11-24T00:18:43.824Z,29.60
2022-11-24T00:21:10.854Z,30.48
2022-11-24T00:23:38.071Z,29.15
2022-11-24T00:26:07.021Z,27.35
2022-11-24T00:28:34.625Z,28.55
2022-11-24T00:31:01.689Z,28.83
2022-11-24T00:33:28.513Z,26.58
2022-11-24T00:35:57.515Z,27.45
2022-11-24T00:38:24.543Z,24.70
2022-11-24T00:40:51.754Z,28.05
2022-11-24T00:43:18.527Z,29.33
2022-11-24T00:45:45.301Z,26.58
2022-11-24T00:48:12.025Z,27.90
2022-11-24T00:50:38.849Z,25.27
2022-11-24T00:53:06.908Z,25.67
2022-11-24T00:55:33.645Z,24.42
2022-11-24T00:58:00.348Z,26.85
2022-11-24T01:00:27.017Z,27.08
2022-11-24T01:02:53.740Z,24.17
2022-11-24T01:05:20.500Z,26.50
2022-11-24T01:07:47.421Z,25.35
2022-11-24T01:10:15.829Z,22.45
2022-11-24T01:12:42.480Z,23.25
2022-11-24T01:15:09.332Z,19.35
2022-11-24T01:17:36.055Z,22.60
2022-11-24T01:20:02.892Z,21.20
2022-11-24T01:22:29.577Z,20.70
2022-11-24T01:24:56.213Z,17.23
2022-11-24T01:27:24.234Z,22.25
2022-11-24T01:29:50.900Z,21.23
2022-11-24T01:32:17.549Z,23.83
2022-11-24T01:34:44.190Z,27.05
2022-11-24T01:37:10.823Z,18.92
2022-11-24T01:39:37.517Z,19.98
2022-11-24T01:42:04.196Z,19.63
2022-11-24T01:44:32.544Z,22.02
2022-11-24T01:47:02.618Z,21.15
2022-11-24T01:49:38.242Z,20.77
2022-11-24T01:52:10.111Z,21.58
2022-11-24T01:54:39.816Z,20.15
2022-11-24T01:57:12.600Z,23.98
2022-11-24T01:59:41.126Z,18.33
2022-11-24T02:02:08.738Z,21.00
2022-11-24T02:04:36.382Z,19.38
2022-11-24T02:07:05.261Z,18.92
2022-11-24T02:09:36.259Z,18.65
2022-11-24T02:12:03.246Z,16.88
2022-11-24T02:14:30.149Z,17.35
2022-11-24T02:16:58.264Z,17.88
2022-11-24T02:19:34.087Z,18.20
2022-11-24T02:22:02.829Z,17.52
2022-11-24T02:24:35.252Z,16.45
2022-11-24T02:27:04.099Z,18.98
2022-11-24T02:29:30.804Z,16.70
2022-11-24T02:32:01.911Z,14.85
2022-11-24T02:34:28.799Z,18.92
2022-11-24T02:36:55.473Z,19.48
2022-11-24T02:39:22.151Z,17.02
2022-11-24T02:41:52.984Z,18.88
2022-11-24T02:44:23.960Z,16.88
2022-11-24T02:47:00.888Z,16.58
2022-11-24T02:49:27.538Z,19.65
2022-11-24T02:51:54.172Z,17.73
2022-11-24T02:54:20.846Z,16.77
2022-11-24T02:56:47.513Z,16.55
2022-11-24T02:59:14.160Z,18.05
2022-11-24T03:06:45.680Z,15.65
2022-11-24T03:09:12.364Z,15.45
2022-11-24T03:11:39.096Z,15.18
2022-11-24T03:14:06.036Z,17.88
2022-11-24T03:16:33.205Z,18.90
2022-11-24T03:19:00.464Z,13.68
2022-11-24T03:21:27.472Z,17.55
2022-11-24T03:23:55.514Z,14.90
2022-11-24T03:26:24.243Z,18.65
2022-11-24T03:28:53.944Z,17.95
2022-11-24T03:31:20.999Z,13.05
2022-11-24T03:33:47.713Z,18.80
2022-11-24T03:36:14.396Z,16.58
2022-11-24T03:38:41.047Z,16.75
2022-11-24T03:41:09.039Z,16.23
2022-11-24T03:43:41.943Z,15.65
2022-11-24T03:46:10.801Z,13.68
2022-11-24T03:48:37.554Z,16.05
2022-11-24T03:51:04.550Z,15.82
2022-11-24T03:53:32.814Z,16.23
2022-11-24T03:55:59.877Z,16.00
2022-11-24T03:58:28.623Z,16.75
2022-11-24T04:00:55.566Z,15.02
2022-11-24T04:03:22.773Z,15.73
2022-11-24T04:05:49.517Z,15.63
2022-11-24T04:08:16.688Z,15.55
2022-11-24T04:10:43.630Z,13.65
2022-11-24T04:13:15.643Z,16.83
2022-11-24T04:15:44.249Z,12.82
2022-11-24T04:18:12.485Z,16.95
2022-11-24T04:20:39.691Z,13.82
2022-11-24T04:23:06.667Z,14.15
2022-11-24T04:25:33.344Z,15.68
2022-11-24T04:28:00.044Z,12.95
2022-11-24T04:30:28.017Z,17.58
2022-11-24T04:32:56.235Z,12.15
2022-11-24T04:35:23.044Z,13.32
2022-11-24T04:37:49.766Z,15.73
2022-11-24T04:40:17.297Z,14.13
2022-11-24T04:42:44.084Z,12.45
2022-11-24T04:45:11.213Z,17.08
2022-11-24T04:47:38.065Z,13.77
2022-11-24T04:50:07.419Z,11.65
2022-11-24T04:52:34.179Z,13.05
2022-11-24T04:55:01.270Z,16.63
2022-11-24T04:57:28.189Z,15.75
2022-11-24T04:59:55.276Z,13.90
2022-11-24T05:02:23.251Z,15.65
2022-11-24T05:04:49.926Z,15.07
2022-11-24T05:07:19.559Z,13.48
2022-11-24T05:09:58.983Z,12.30
2022-11-24T05:12:27.101Z,12.40
2022-11-24T05:14:53.764Z,13.90
2022-11-24T05:17:20.386Z,12.93
2022-11-24T05:19:47.100Z,13.48
2022-11-24T05:22:13.804Z,14.00
2022-11-24T05:24:41.813Z,11.98
2022-11-24T05:27:08.473Z,13.32
2022-11-24T05:29:35.128Z,15.23
2022-11-24T05:32:01.819Z,18.63
2022-11-24T05:34:28.460Z,13.82
2022-11-24T05:36:55.154Z,14.80
2022-11-24T05:39:21.818Z,16.55
2022-11-24T05:41:49.812Z,18.92
2022-11-24T05:44:16.457Z,20.00
2022-11-24T05:46:43.171Z,14.88
2022-11-24T05:49:10.056Z,14.40
2022-11-24T05:51:36.656Z,16.90
2022-11-24T05:54:03.481Z,15.40
2022-11-24T05:56:30.340Z,15.52
2022-11-24T05:58:58.410Z,15.48
2022-11-24T06:01:25.059Z,13.50
2022-11-24T06:03:51.773Z,14.18
2022-11-24T06:06:18.451Z,15.27
2022-11-24T06:08:45.140Z,14.23
2022-11-24T06:11:11.822Z,19.63
2022-11-24T06:13:41.374Z,19.52
2022-11-24T06:16:09.662Z,13.95
2022-11-24T06:18:36.400Z,15.73
2022-11-24T06:21:10.967Z,18.25
2022-11-24T06:23:38.552Z,17.35
2022-11-24T06:26:05.567Z,17.58
2022-11-24T06:28:32.774Z,16.33
2022-11-24T06:31:02.547Z,17.58
2022-11-24T06:33:34.670Z,18.35
2022-11-24T06:36:02.007Z,19.38
2022-11-24T06:38:28.752Z,12.52
2022-11-24T06:40:59.643Z,12.95
2022-11-24T06:43:26.759Z,13.07
2022-11-24T06:45:53.473Z,16.92
2022-11-24T06:48:20.408Z,14.38
2022-11-24T06:50:48.438Z,12.73
2022-11-24T06:53:15.183Z,18.08
2022-11-24T06:55:42.505Z,18.52
2022-11-24T06:58:09.179Z,10.10
2022-11-24T07:00:36.843Z,17.90
2022-11-24T07:03:03.661Z,11.80
2022-11-24T07:05:30.548Z,12.60
2022-11-24T07:08:00.257Z,15.10
2022-11-24T07:10:28.126Z,13.25
2022-11-24T07:12:54.826Z,17.00
2022-11-24T07:15:21.456Z,14.68
2022-11-24T07:17:48.183Z,15.77
2022-11-24T07:20:15.059Z,17.52
2022-11-24T07:22:41.684Z,11.75
2022-11-24T07:25:10.091Z,14.98
2022-11-24T07:27:36.896Z,9.63
2022-11-24T07:30:04.279Z,12.85
2022-11-24T07:32:31.136Z,11.63
2022-11-24T07:34:57.817Z,10.55
2022-11-24T07:37:29.661Z,12.70
2022-11-24T07:40:01.012Z,12.70
2022-11-24T07:42:29.258Z,14.98
2022-11-24T07:44:58.562Z,14.13
2022-11-24T07:47:25.239Z,18.02
2022-11-24T07:49:51.934Z,14.40
2022-11-24T07:52:18.772Z,17.02
2022-11-24T07:54:45.431Z,13.00
2022-11-24T07:57:12.079Z,12.65
2022-11-24T07:59:40.107Z,13.00
2022-11-24T08:02:07.420Z,14.32
2022-11-24T08:04:34.345Z,17.45
2022-11-24T08:07:02.376Z,13.98
2022-11-24T08:09:29.041Z,22.15
2022-11-24T08:11:55.669Z,15.18
2022-11-24T08:14:22.413Z,14.60
2022-11-24T08:16:50.497Z,9.00
2022-11-24T08:19:17.208Z,11.75
2022-11-24T08:21:43.939Z,16.05
2022-11-24T08:24:10.723Z,13.68
2022-11-24T08:26:37.345Z,10.15
2022-11-24T08:29:04.126Z,15.13
2022-11-24T08:31:34.107Z,16.90
2022-11-24T08:34:03.873Z,11.80
2022-11-24T08:36:31.035Z,14.35
2022-11-24T08:38:59.369Z,11.68
2022-11-24T08:41:27.705Z,11.18
2022-11-24T08:43:55.302Z,11.07
2022-11-24T08:46:22.442Z,12.35
2022-11-24T08:48:50.196Z,14.93
2022-11-24T08:51:22.964Z,13.95
2022-11-24T08:53:53.408Z,13.25
2022-11-24T08:56:20.061Z,13.60
2022-11-24T08:58:46.746Z,15.15
2022-11-24T09:01:14.617Z,15.95
2022-11-24T09:03:49.756Z,20.25
2022-11-24T09:06:19.955Z,17.20
2022-11-24T09:08:46.620Z,16.60
2022-11-24T09:11:14.866Z,15.35
2022-11-24T09:13:41.892Z,16.23
2022-11-24T09:16:10.432Z,11.82
2022-11-24T09:18:37.728Z,17.60
2022-11-24T09:21:08.140Z,15.23
2022-11-24T09:23:36.682Z,11.15
2022-11-24T09:26:05.013Z,13.95
2022-11-24T09:28:31.657Z,11.48
2022-11-24T09:31:01.215Z,14.48
2022-11-24T09:33:28.253Z,11.15
2022-11-24T09:35:57.036Z,10.85
2022-11-24T09:38:26.106Z,16.92
2022-11-24T09:40:57.900Z,11.10
2022-11-24T09:43:33.156Z,11.60
2022-11-24T09:46:07.977Z,10.13
2022-11-24T09:48:38.939Z,9.32
2022-11-24T09:51:10.258Z,13.15
2022-11-24T09:53:39.205Z,12.07
2022-11-24T09:56:18.723Z,10.75
2022-11-24T09:58:48.395Z,12.52
2022-11-24T10:01:17.817Z,19.92
2022-11-24T10:03:47.221Z,14.95
2022-11-24T10:06:22.409Z,11.57
2022-11-24T10:09:12.273Z,8.00
2022-11-24T10:11:45.569Z,11.07
2022-11-24T10:14:31.096Z,9.57
2022-11-24T10:17:05.813Z,11.68
2022-11-24T10:19:45.573Z,15.95
2022-11-24T10:22:29.718Z,9.70
2022-11-24T10:25:08.689Z,10.20
2022-11-24T10:27:41.723Z,7.60
2022-11-24T10:30:14.969Z,7.85
2022-11-24T10:32:45.739Z,11.90
2022-11-24T10:35:18.608Z,7.53
2022-11-24T10:37:54.049Z,8.50
2022-11-24T10:40:49.148Z,8.55
2022-11-24T10:43:14.874Z,6.45
2022-11-24T10:45:41.758Z,7.05
2022-11-24T10:48:16.464Z,9.70
2022-11-24T10:50:43.109Z,5.40
2022-11-24T10:53:16.897Z,9.55
2022-11-24T10:56:04.856Z,7.60
2022-11-24T10:58:37.882Z,6.60
2022-11-24T11:01:21.215Z,8.85
2022-11-24T11:03:50.949Z,7.10
2022-11-24T11:06:22.767Z,8.68
2022-11-24T11:08:49.540Z,8.60
2022-11-24T11:11:23.118Z,8.02
2022-11-24T11:13:59.836Z,9.23
2022-11-24T11:16:35.052Z,7.70
2022-11-24T11:19:15.667Z,8.90
2022-11-24T11:21:59.993Z,5.68
2022-11-24T11:24:31.413Z,6.35
2022-11-24T11:27:03.782Z,7.80
2022-11-24T11:35:12.706Z,6.93
2022-11-24T11:37:39.626Z,10.15
2022-11-24T11:40:15.313Z,9.07
2022-11-24T11:43:01.880Z,8.20
2022-11-24T11:45:34.728Z,9.00
2022-11-24T11:48:18.951Z,6.03
2022-11-24T11:51:21.647Z,9.55
2022-11-24T11:53:41.303Z,6.97
2022-11-24T11:56:20.746Z,11.10
2022-11-24T11:59:24.000Z,6.57
2022-11-24T12:02:24.640Z,10.10
2022-11-24T12:04:55.752Z,8.02
2022-11-24T12:07:37.070Z,7.03
2022-11-24T12:10:11.859Z,5.53
2022-11-24T12:13:10.884Z,7.82
2022-11-24T12:15:41.560Z,4.78
2022-11-24T12:18:48.401Z,4.70
2022-11-24T12:21:17.854Z,7.53
2022-11-24T12:24:01.969Z,7.25
2022-11-24T12:26:37.577Z,7.05
2022-11-24T12:29:25.757Z,7.30
2022-11-24T12:32:03.791Z,5.57
2022-11-24T12:34:44.147Z,9.27
2022-11-24T12:37:32.118Z,8.38
2022-11-24T12:40:04.609Z,5.55
2022-11-24T12:42:41.600Z,8.05
2022-11-24T12:45:15.330Z,8.50
2022-11-24T12:48:04.958Z,9.20
2022-11-24T12:50:37.403Z,7.85
2022-11-24T12:53:10.449Z,9.75
2022-11-24T12:55:37.734Z,8.52
2022-11-24T12:58:11.457Z,7.50
2022-11-24T13:00:47.907Z,11.18
2022-11-24T13:03:30.648Z,12.15
2022-11-24T13:06:02.979Z,17.23
2022-11-24T13:08:30.862Z,8.90
2022-11-24T13:11:26.363Z,10.55
2022-11-24T13:13:58.313Z,7.78
2022-11-24T13:19:17.496Z,6.70
2022-11-24T13:21:58.487Z,6.15
2022-11-24T13:24:27.487Z,7.32
2022-11-24T13:27:15.131Z,8.43
2022-11-24T13:29:43.085Z,10.15
2022-11-24T13:32:45.753Z,8.45
2022-11-24T13:35:14.165Z,8.52
2022-11-24T13:37:50.282Z,9.02
2022-11-24T13:41:06.316Z,9.10
2022-11-24T13:43:33.727Z,7.30
2022-11-24T13:46:00.425Z,9.20
2022-11-24T13:48:58.656Z,9.98
2022-11-24T13:51:25.913Z,15.15
2022-11-24T13:53:56.969Z,11.10
2022-11-24T13:56:29.255Z,11.98
2022-11-24T13:58:58.365Z,12.13
2022-11-24T14:01:26.842Z,13.07
2022-11-24T14:06:53.473Z,10.23
2022-11-24T14:09:28.061Z,10.68
2022-11-24T14:12:01.887Z,11.45
2022-11-24T14:14:28.838Z,12.20
2022-11-24T14:17:06.969Z,13.88
2022-11-24T14:19:33.669Z,10.35
2022-11-24T14:22:00.459Z,13.65
2022-11-24T14:24:38.115Z,12.88
2022-11-24T14:27:14.606Z,13.52
2022-11-24T14:29:54.163Z,10.70
2022-11-24T14:32:21.107Z,7.78
2022-11-24T14:34:48.541Z,8.00
2022-11-24T14:37:15.263Z,8.13
2022-11-24T14:39:43.442Z,10.90
2022-11-24T14:42:18.464Z,8.98
2022-11-24T14:44:49.049Z,7.00
2022-11-24T14:47:24.565Z,8.20
2022-11-24T14:49:57.059Z,8.90
2022-11-24T14:52:25.668Z,9.85
2022-11-24T14:55:07.581Z,11.38
2022-11-24T14:57:44.616Z,9.23
2022-11-24T15:00:18.469Z,8.85
2022-11-24T15:02:49.961Z,7.75
2022-11-24T15:05:17.531Z,11.60
2022-11-24T15:07:46.413Z,9.10
2022-11-24T15:10:33.898Z,13.63
2022-11-24T15:13:03.591Z,13.80
2022-11-24T15:15:32.171Z,42.08
2022-11-24T15:18:00.359Z,39.63
2022-11-24T15:20:29.947Z,25.92
2022-11-24T15:23:29.068Z,17.63
2022-11-24T15:25:57.939Z,24.25
2022-11-24T15:28:25.064Z,15.48
2022-11-24T15:30:53.382Z,14.32
2022-11-24T15:33:20.734Z,16.15
2022-11-24T15:35:47.912Z,14.30
2022-11-24T15:38:15.131Z,12.02
2022-11-24T15:40:44.435Z,13.40
2022-11-24T15:43:28.474Z,12.65
2022-11-24T15:45:55.616Z,13.15
2022-11-24T15:48:22.354Z,12.02
2022-11-24T15:50:50.083Z,10.90
2022-11-24T15:53:22.754Z,12.88
2022-11-24T15:55:50.286Z,12.63
2022-11-24T15:58:17.296Z,10.38
2022-11-24T16:00:45.862Z,14.07
2022-11-24T16:03:45.140Z,16.25
2022-11-24T16:05:59.496Z,15.30
2022-11-24T16:08:26.221Z,15.88
2022-11-24T16:10:52.848Z,13.85
2022-11-24T16:13:19.582Z,16.13
2022-11-24T16:15:47.641Z,14.52
2022-11-24T16:18:14.265Z,17.92
2022-11-24T16:20:40.937Z,13.52
2022-11-24T16:23:08.243Z,18.80
2022-11-24T16:25:34.930Z,15.77
2022-11-24T16:28:01.635Z,18.45
2022-11-24T16:30:28.328Z,15.30
2022-11-24T16:32:57.069Z,14.38
2022-11-24T16:35:23.799Z,13.93
2022-11-24T16:37:50.447Z,12.63
2022-11-24T16:40:17.174Z,10.48
2022-11-24T16:42:43.829Z,11.20
2022-11-24T16:45:12.638Z,11.00
2022-11-24T16:47:40.198Z,10.32
2022-11-24T16:50:10.128Z,8.07
2022-11-24T16:52:36.796Z,10.90
2022-11-24T16:55:04.228Z,13.52
2022-11-24T16:57:30.975Z,11.30
2022-11-24T16:59:57.661Z,9.27
2022-11-24T17:02:24.386Z,11.05
2022-11-24T17:04:51.082Z,7.82
2022-11-24T17:07:19.451Z,9.68
2022-11-24T17:09:46.148Z,9.35
2022-11-24T17:12:12.816Z,12.10
2022-11-24T17:14:39.518Z,10.13
2022-11-24T17:17:06.200Z,9.73
2022-11-24T17:19:32.918Z,11.85
2022-11-24T17:21:59.808Z,12.60
2022-11-24T17:24:28.144Z,13.38
2022-11-24T17:26:54.983Z,12.55
2022-11-24T17:29:21.752Z,8.73
2022-11-24T17:31:48.501Z,9.18
2022-11-24T17:34:15.200Z,14.13
2022-11-24T17:36:41.905Z,10.32
2022-11-24T17:39:09.484Z,12.48
2022-11-24T17:41:37.888Z,11.98
2022-11-24T17:44:04.582Z,11.90
2022-11-24T17:46:31.459Z,14.35
2022-11-24T17:48:58.264Z,16.02
2022-11-24T17:51:26.670Z,17.48
2022-11-24T17:53:54.645Z,16.20
2022-11-24T17:56:23.095Z,16.33
2022-11-24T17:58:52.748Z,14.27
2022-11-24T18:01:19.680Z,18.23
2022-11-24T18:03:50.452Z,14.63
2022-11-24T18:06:20.118Z,16.95
2022-11-24T18:08:47.421Z,15.38
2022-11-24T18:11:15.730Z,16.45
2022-11-24T18:14:00.776Z,17.58
2022-11-24T18:16:30.606Z,17.48
2022-11-24T18:19:07.721Z,15.57
2022-11-24T18:21:36.125Z,17.30
2022-11-24T18:24:02.983Z,15.15
2022-11-24T18:26:29.634Z,16.45
2022-11-24T18:28:56.330Z,15.88
2022-11-24T18:31:23.038Z,15.38
2022-11-24T18:33:51.134Z,12.10
2022-11-24T18:36:19.207Z,16.70
2022-11-24T18:38:45.930Z,13.30
2022-11-24T18:41:14.130Z,12.13
2022-11-24T18:43:41.228Z,11.75
2022-11-24T18:46:10.209Z,12.00
2022-11-24T18:48:36.938Z,10.23
2022-11-24T18:51:05.890Z,11.82
2022-11-24T18:53:32.566Z,9.80
2022-11-24T18:56:01.034Z,14.48
2022-11-24T18:58:28.417Z,12.68
2022-11-24T19:00:55.855Z,12.18
2022-11-24T19:03:22.556Z,11.85
2022-11-24T19:05:49.848Z,12.35
2022-11-24T19:08:17.824Z,13.55
2022-11-24T19:10:44.525Z,13.43
2022-11-24T19:13:11.885Z,15.75
2022-11-24T19:15:38.567Z,12.38
2022-11-24T19:18:05.482Z,14.18
2022-11-24T19:20:34.238Z,14.20
2022-11-24T19:23:00.912Z,18.80
2022-11-24T19:25:28.918Z,15.73
2022-11-24T19:27:55.609Z,21.23
2022-11-24T19:30:22.299Z,14.57
2022-11-24T19:32:48.940Z,11.48
2022-11-24T19:35:15.645Z,13.85
2022-11-24T19:37:42.309Z,9.27
2022-11-24T19:40:09.709Z,11.18
2022-11-24T19:42:37.735Z,12.88
2022-11-24T19:45:05.600Z,10.82
2022-11-24T19:47:32.242Z,10.27
2022-11-24T19:49:58.948Z,9.48
2022-11-24T19:52:25.718Z,11.00
2022-11-24T19:54:52.343Z,12.23
2022-11-24T19:57:19.034Z,11.63
2022-11-24T19:59:47.074Z,12.63
2022-11-24T20:02:13.775Z,11.00
2022-11-24T20:04:40.470Z,10.85
2022-11-24T20:07:07.174Z,11.20
2022-11-24T20:09:33.953Z,11.23
2022-11-24T20:12:00.705Z,12.05
2022-11-24T20:14:27.415Z,11.60
2022-11-24T20:16:55.585Z,10.75
2022-11-24T20:19:22.360Z,11.65
2022-11-24T20:21:49.048Z,9.18
2022-11-24T20:24:18.409Z,9.73
2022-11-24T20:26:47.002Z,10.68
2022-11-24T20:29:14.208Z,15.68
2022-11-24T20:31:43.417Z,11.80
2022-11-24T20:34:12.447Z,14.35
2022-11-24T20:36:41.571Z,10.52
2022-11-24T20:39:11.587Z,10.30
2022-11-24T20:41:38.430Z,9.57
2022-11-24T20:44:07.952Z,11.43
2022-11-24T20:46:36.625Z,12.00
2022-11-24T20:49:04.697Z,10.23
2022-11-24T20:51:35.165Z,9.57
2022-11-24T20:54:03.880Z,9.73
2022-11-24T20:56:33.282Z,9.48
2022-11-24T20:59:00.429Z,7.90
2022-11-24T21:01:29.112Z,13.30
2022-11-24T21:03:58.185Z,9.53
2022-11-24T21:06:25.988Z,13.27
2022-11-24T21:09:00.572Z,8.70
2022-11-24T21:11:30.225Z,9.82
2022-11-24T21:13:56.900Z,10.63
2022-11-24T21:16:25.147Z,8.80
2022-11-24T21:18:53.031Z,9.00
2022-11-24T21:21:20.722Z,7.13
2022-11-24T21:23:47.753Z,9.82
2022-11-24T21:26:17.511Z,11.77
2022-11-24T21:28:45.613Z,9.07
2022-11-24T21:31:14.213Z,9.65
2022-11-24T21:33:41.422Z,12.18
2022-11-24T21:36:08.925Z,9.50
2022-11-24T21:38:35.666Z,8.70
2022-11-24T21:41:03.561Z,8.23
2022-11-24T21:43:32.513Z,9.38
2022-11-24T21:46:00.367Z,10.68
2022-11-24T21:48:27.156Z,8.85
2022-11-24T21:50:53.897Z,12.55
2022-11-24T21:53:20.709Z,13.27
2022-11-24T21:55:54.408Z,10.02
2022-11-24T21:58:21.702Z,8.05
2022-11-24T22:00:50.327Z,8.38
2022-11-24T22:03:17.587Z,9.95
2022-11-24T22:05:52.755Z,14.67
2022-11-24T22:08:19.425Z,8.77
2022-11-24T22:10:46.169Z,7.22
2022-11-24T22:13:12.851Z,7.72
2022-11-24T22:15:39.611Z,6.85
2022-11-24T22:18:07.637Z,6.80
2022-11-24T22:20:34.334Z,8.48
2022-11-24T22:23:01.128Z,6.70
2022-11-24T22:25:27.807Z,6.13
2022-11-24T22:27:54.462Z,6.85
2022-11-24T22:30:21.210Z,8.10
2022-11-24T22:32:47.884Z,6.40
2022-11-24T22:35:16.119Z,7.10
2022-11-24T22:37:42.741Z,7.82
2022-11-24T22:40:09.792Z,11.05
2022-11-24T22:42:36.594Z,9.47
2022-11-24T22:45:03.703Z,8.25
2022-11-24T22:47:30.464Z,9.25
2022-11-24T22:49:57.139Z,7.38
2022-11-24T22:52:25.133Z,9.05
2022-11-24T22:54:51.824Z,7.27
2022-11-24T22:57:18.509Z,11.13
2022-11-24T22:59:45.163Z,9.48
2022-11-24T23:02:11.815Z,11.02
2022-11-24T23:04:38.459Z,9.85
2022-11-24T23:07:05.259Z,12.53
2022-11-24T23:09:33.304Z,12.07
2022-11-24T23:12:00.030Z,11.60
2022-11-24T23:14:26.680Z,13.35
2022-11-24T23:16:53.755Z,13.07
2022-11-24T23:19:20.467Z,12.27
2022-11-24T23:21:47.080Z,13.52
2022-11-24T23:24:13.737Z,14.90
2022-11-24T23:26:41.717Z,14.55
2022-11-24T23:29:10.036Z,13.10
2022-11-24T23:31:36.707Z,18.80
2022-11-24T23:34:04.081Z,22.20
2022-11-24T23:36:31.308Z,15.05
2022-11-24T23:39:02.049Z,11.93
2022-11-24T23:41:30.188Z,9.45
2022-11-24T23:43:58.634Z,16.03
2022-11-24T23:46:26.709Z,35.10
2022-11-24T23:48:54.628Z,32.90
2022-11-24T23:51:22.880Z,15.48
2022-11-24T23:53:50.267Z,11.70
2022-11-24T23:56:19.350Z,11.43
2022-11-24T23:58:46.310Z,10.90
